Time;durP1;ratioP1;P1;durP2;ratioP2;P2;SDS_P1;SDS_P2;PMS_P1;PMS_P2;Temp;Humidity;BMP_temperature;BMP_pressure;BME280_temperature;BME280_humidity;BME280_pressure;Samples;Min_cycle;Max_cycle;Signal;HPM_P1;HPM_P2
2023/01/23 00:00:26;;;;;;;35.00;17.48;;;;;;;-0.99;97.40;100435.22;5029488;28;20032;-81
2023/01/23 00:02:52;;;;;;;38.08;19.98;;;;;;;-1.26;98.73;100431.56;5054062;28;20044;-82
2023/01/23 00:05:17;;;;;;;38.15;19.10;;;;;;;-0.35;98.12;100424.19;5039592;28;20039;-81
2023/01/23 00:07:43;;;;;;;35.67;20.13;;;;;;;-0.27;96.73;100432.19;5033206;28;20128;-81
2023/01/23 00:10:09;;;;;;;34.75;18.30;;;;;;;-0.52;98.21;100435.38;5057968;28;20027;-81
2023/01/23 00:12:35;;;;;;;38.55;19.98;;;;;;;-0.27;96.68;100417.28;5043310;28;20055;-82
2023/01/23 00:15:00;;;;;;;34.20;17.90;;;;;;;-0.90;97.66;100421.31;5044734;28;20024;-81
2023/01/23 00:17:28;;;;;;;37.72;19.20;;;;;;;-0.60;98.46;100424.75;5055849;28;20036;-81
2023/01/23 00:19:54;;;;;;;46.10;22.17;;;;;;;-0.37;96.99;100419.06;5045406;28;20028;-81
2023/01/23 00:22:20;;;;;;;44.92;21.15;;;;;;;-1.06;98.74;100430.66;5029522;28;20040;-81
2023/01/23 00:24:46;;;;;;;42.08;21.17;;;;;;;-1.07;98.41;100408.88;5044431;28;20040;-81
2023/01/23 00:27:11;;;;;;;39.55;20.60;;;;;;;-0.96;99.12;100421.03;5037997;28;20040;-81
2023/01/23 00:29:37;;;;;;;40.42;21.40;;;;;;;-1.04;99.42;100413.00;5032967;28;20041;-81
2023/01/23 00:32:02;;;;;;;43.38;21.83;;;;;;;-1.33;100.00;100404.28;5035087;28;20116;-81
2023/01/23 00:34:27;;;;;;;48.30;22.35;;;;;;;-1.17;100.00;100417.69;5067681;28;20032;-81
2023/01/23 00:36:54;;;;;;;48.65;22.73;;;;;;;-1.09;100.00;100416.03;5037769;28;20560;-81
2023/01/23 00:39:21;;;;;;;49.15;23.65;;;;;;;-1.22;100.00;100414.66;5038024;28;20036;-81
2023/01/23 00:41:47;;;;;;;45.92;22.30;;;;;;;-0.81;100.00;100415.22;5035974;28;20028;-81
2023/01/23 00:44:13;;;;;;;48.85;21.92;;;;;;;-0.86;99.57;100427.09;5055124;28;20536;-81
2023/01/23 00:46:39;;;;;;;54.20;22.52;;;;;;;-0.83;99.46;100437.31;5055420;28;20075;-81
2023/01/23 00:49:04;;;;;;;47.88;22.10;;;;;;;-0.31;98.73;100429.03;5056726;28;20123;-81
2023/01/23 00:51:29;;;;;;;49.25;22.33;;;;;;;-0.46;97.72;100429.59;5068982;28;20028;-81
2023/01/23 00:53:55;;;;;;;48.33;21.33;;;;;;;-0.93;97.85;100428.59;5035335;28;20397;-81
2023/01/23 00:56:20;;;;;;;49.50;20.83;;;;;;;-0.94;98.83;100419.91;5034247;28;20436;-81
2023/01/23 00:58:46;;;;;;;45.85;21.88;;;;;;;-0.42;98.37;100426.56;5029355;28;20170;-81
2023/01/23 01:01:12;;;;;;;47.55;23.40;;;;;;;-0.86;97.25;100437.59;5066142;28;20039;-81
2023/01/23 01:03:38;;;;;;;42.30;20.95;;;;;;;-1.14;99.53;100433.13;5062714;28;20056;-81
2023/01/23 01:06:03;;;;;;;40.00;19.30;;;;;;;-0.51;98.54;100443.13;5049896;28;20051;-81
2023/01/23 01:08:29;;;;;;;47.40;22.88;;;;;;;-1.02;98.80;100440.72;5061042;28;20040;-81
2023/01/23 01:10:54;;;;;;;50.22;22.67;;;;;;;-1.25;100.00;100446.34;5043351;28;20032;-81
2023/01/23 01:13:20;;;;;;;45.53;20.00;;;;;;;-1.18;100.00;100456.13;5032998;28;20351;-81
2023/01/23 01:15:51;;;;;;;51.47;22.38;;;;;;;-1.01;100.00;100459.91;5047105;28;20044;-81
2023/01/23 01:18:17;;;;;;;50.90;21.92;;;;;;;-1.01;100.00;100457.28;5063167;28;20036;-81
2023/01/23 01:20:43;;;;;;;44.20;22.08;;;;;;;-1.09;99.99;100454.53;5044902;28;20020;-81
2023/01/23 01:23:10;;;;;;;51.10;23.88;;;;;;;-1.10;100.00;100463.34;5054064;28;20039;-81
2023/01/23 01:25:35;;;;;;;46.47;21.92;;;;;;;-1.36;100.00;100444.66;5057299;28;20024;-81
2023/01/23 01:28:01;;;;;;;55.45;23.13;;;;;;;-1.17;100.00;100455.19;5042749;28;20033;-81
2023/01/23 01:30:26;;;;;;;56.03;23.90;;;;;;;-1.06;100.00;100462.09;5046121;28;20039;-80
2023/01/23 01:32:53;;;;;;;49.10;23.77;;;;;;;-1.18;100.00;100471.03;5027654;28;20028;-81
2023/01/23 01:35:19;;;;;;;52.22;23.55;;;;;;;-1.04;100.00;100466.25;5058917;28;20028;-81
2023/01/23 01:37:45;;;;;;;52.83;23.98;;;;;;;-1.00;100.00;100465.00;5039888;28;20024;-81
2023/01/23 01:40:15;;;;;;;51.35;23.80;;;;;;;-0.86;100.00;100462.00;5051428;28;20048;-81
2023/01/23 01:42:48;;;;;;;52.70;22.50;;;;;;;-0.84;100.00;100465.31;5027689;28;20045;-82
2023/01/23 01:45:51;;;;;;;46.83;22.38;;;;;;;-0.90;99.45;100468.50;5067269;28;20029;-82
2023/01/23 01:48:20;;;;;;;56.58;27.27;;;;;;;-1.02;100.00;100476.59;5052306;28;20492;-81
2023/01/23 01:50:46;;;;;;;56.22;24.73;;;;;;;-1.12;100.00;100473.97;5040774;28;20090;-81
2023/01/23 01:53:12;;;;;;;61.40;25.73;;;;;;;-1.11;100.00;100457.25;5011321;28;20033;-81
2023/01/23 01:55:38;;;;;;;57.03;26.52;;;;;;;-1.15;100.00;100460.28;5044432;28;20305;-81
2023/01/23 01:58:04;;;;;;;58.33;26.13;;;;;;;-0.96;100.00;100482.09;5018896;28;20268;-81
2023/01/23 02:00:29;;;;;;;56.70;25.67;;;;;;;-0.64;100.00;100479.28;5041186;28;20025;-81
2023/01/23 02:03:01;;;;;;;68.43;30.42;;;;;;;-0.96;99.14;100473.44;5078720;28;20056;-81
2023/01/23 02:05:32;;;;;;;61.35;24.50;;;;;;;-1.23;100.00;100487.16;5060111;28;20049;-81
2023/01/23 02:08:13;;;;;;;61.33;26.25;;;;;;;-1.18;100.00;100492.81;5042730;28;20099;-81
2023/01/23 02:10:39;;;;;;;68.05;26.67;;;;;;;-1.10;100.00;100473.81;5039506;28;20117;-82
2023/01/23 02:13:31;;;;;;;67.25;29.30;;;;;;;-1.19;100.00;100483.31;5044925;28;20079;-81
2023/01/23 02:15:58;;;;;;;61.55;25.27;;;;;;;-1.43;100.00;100479.34;5039879;28;20024;-81
2023/01/23 02:18:23;;;;;;;60.88;27.02;;;;;;;-1.34;100.00;100483.81;5080666;28;20082;-81
2023/01/23 02:20:51;;;;;;;59.47;27.08;;;;;;;-1.01;100.00;100476.47;5039601;28;20040;-81
2023/01/23 02:23:29;;;;;;;69.95;28.63;;;;;;;-1.28;100.00;100480.66;5032073;28;20388;-81
2023/01/23 02:26:08;;;;;;;69.93;29.85;;;;;;;-1.01;100.00;100471.22;5056503;28;20105;-81
2023/01/23 02:28:37;;;;;;;48.55;22.08;;;;;;;-1.14;100.00;100488.16;5059518;28;20090;-81
2023/01/23 02:31:03;;;;;;;74.30;27.50;;;;;;;-1.32;100.00;100480.09;5039141;28;20025;-81
2023/01/23 02:33:29;;;;;;;72.03;29.10;;;;;;;-1.23;100.00;100486.31;5043866;28;20624;-81
2023/01/23 02:35:54;;;;;;;68.55;27.55;;;;;;;-0.95;100.00;100488.19;5060475;28;20021;-81
2023/01/23 02:38:23;;;;;;;71.22;28.92;;;;;;;-0.81;100.00;100485.19;5032241;28;20032;-81
2023/01/23 02:40:48;;;;;;;68.05;28.20;;;;;;;-0.52;100.00;100496.50;5052026;28;20264;-82
2023/01/23 02:43:20;;;;;;;61.22;29.10;;;;;;;-1.28;100.00;100498.97;5064483;28;20024;-82
2023/01/23 02:45:45;;;;;;;72.97;29.70;;;;;;;-1.28;100.00;100491.97;5060689;28;20553;-81
2023/01/23 02:48:11;;;;;;;68.30;28.85;;;;;;;-1.34;100.00;100505.59;5037995;28;20033;-81
2023/01/23 02:50:37;;;;;;;71.85;29.98;;;;;;;-1.06;100.00;100517.13;5030186;28;20033;-81
2023/01/23 02:53:05;;;;;;;76.03;29.15;;;;;;;-1.18;100.00;100520.81;5037393;28;20036;-81
2023/01/23 02:55:32;;;;;;;73.53;31.70;;;;;;;-1.00;100.00;100503.47;5059149;28;20463;-81
2023/01/23 03:00:14;;;;;;;81.47;30.23;;;;;;;-1.23;100.00;100518.59;5044549;28;20025;-81
2023/01/23 03:00:44;;;;;;;83.18;29.83;;;;;;;-1.16;100.00;100517.09;5057507;28;20404;-81
2023/01/23 03:03:09;;;;;;;78.30;31.90;;;;;;;-1.28;100.00;100514.69;5056119;28;20036;-83
2023/01/23 03:05:35;;;;;;;74.78;30.15;;;;;;;-1.24;100.00;100510.84;5040805;28;20096;-81
2023/01/23 03:08:00;;;;;;;79.82;31.02;;;;;;;-1.37;100.00;100512.84;5022905;28;20082;-81
2023/01/23 03:10:26;;;;;;;70.78;30.30;;;;;;;-1.42;100.00;100522.91;5010893;28;20028;-81
2023/01/23 03:12:51;;;;;;;75.10;30.83;;;;;;;-1.19;100.00;100529.63;5071736;28;20048;-81
2023/01/23 03:15:17;;;;;;;79.60;30.60;;;;;;;-1.28;100.00;100514.69;5027383;28;20066;-81
2023/01/23 03:17:42;;;;;;;79.72;29.83;;;;;;;-0.92;100.00;100524.63;5045252;28;20028;-81
2023/01/23 03:20:08;;;;;;;79.68;30.60;;;;;;;-0.97;100.00;100526.78;5033392;28;20089;-81
2023/01/23 03:22:34;;;;;;;80.30;32.25;;;;;;;-1.28;100.00;100514.69;5043268;28;20041;-81
2023/01/23 03:25:00;;;;;;;71.85;30.88;;;;;;;-1.16;100.00;100537.22;5025664;28;20032;-81
2023/01/23 03:27:26;;;;;;;83.32;32.55;;;;;;;-1.20;100.00;100538.44;5054359;28;20044;-81
2023/01/23 03:32:37;;;;;;;82.53;31.75;;;;;;;-1.07;100.00;100525.94;5044130;28;20102;-82
2023/01/23 03:35:03;;;;;;;82.50;31.23;;;;;;;-1.35;100.00;100526.66;5036091;28;20388;-82
2023/01/23 03:37:29;;;;;;;77.22;29.27;;;;;;;-1.20;100.00;100533.22;5036511;28;20424;-80
2023/01/23 03:42:38;;;;;;;77.15;31.15;;;;;;;-0.95;100.00;100509.97;5055613;28;21372;-82
2023/01/23 03:45:05;;;;;;;69.10;29.75;;;;;;;-1.30;100.00;100532.31;5039042;28;20032;-81
2023/01/23 03:47:30;;;;;;;78.88;32.25;;;;;;;-1.33;100.00;100515.09;5052557;28;20052;-80
2023/01/23 03:49:55;;;;;;;77.63;29.20;;;;;;;-1.23;100.00;100526.44;5038088;28;20037;-81
2023/01/23 03:52:21;;;;;;;68.93;27.50;;;;;;;-0.57;100.00;100532.00;5060713;28;20035;-81
2023/01/23 03:54:46;;;;;;;75.35;30.95;;;;;;;-0.52;99.86;100532.38;5047506;28;20400;-81
2023/01/23 03:57:12;;;;;;;61.60;27.38;;;;;;;0.43;98.26;100532.34;5033021;28;20033;-81
2023/01/23 03:59:37;;;;;;;67.32;26.40;;;;;;;-0.30;96.99;100538.22;5078028;28;20106;-82
2023/01/23 04:02:06;;;;;;;67.45;29.05;;;;;;;-0.47;98.20;100544.16;5014150;28;20131;-81
2023/01/23 04:04:33;;;;;;;74.32;29.45;;;;;;;-0.63;99.41;100543.84;5029198;28;20408;-81
2023/01/23 04:06:58;;;;;;;57.80;25.00;;;;;;;-0.29;98.70;100539.88;5026377;28;20051;-81
2023/01/23 04:09:26;;;;;;;73.10;30.30;;;;;;;-0.34;97.95;100549.13;5030196;28;20481;-81
2023/01/23 04:11:55;;;;;;;58.03;25.88;;;;;;;0.32;97.33;100558.75;5033146;28;20035;-81
2023/01/23 04:14:22;;;;;;;63.35;26.52;;;;;;;-0.37;96.67;100550.22;5075283;28;20029;-81
2023/01/23 04:16:47;;;;;;;63.90;27.48;;;;;;;-0.75;98.80;100555.41;5039308;28;20056;-81
2023/01/23 04:19:13;;;;;;;57.45;25.40;;;;;;;-0.45;97.90;100552.69;5019101;28;20551;-81
2023/01/23 04:21:38;;;;;;;56.55;24.38;;;;;;;-0.69;97.43;100533.91;5026829;28;20477;-81
2023/01/23 04:24:04;;;;;;;60.60;25.67;;;;;;;-0.78;99.34;100553.88;5024391;28;20159;-81
2023/01/23 04:26:30;;;;;;;64.75;26.60;;;;;;;-1.05;100.00;100543.16;5047142;28;20036;-81
2023/01/23 04:28:55;;;;;;;53.35;24.45;;;;;;;-1.16;100.00;100542.47;5029784;28;20484;-81
2023/01/23 04:31:20;;;;;;;65.38;28.13;;;;;;;-0.82;100.00;100549.03;5040496;28;20695;-81
2023/01/23 04:33:46;;;;;;;73.30;29.60;;;;;;;-1.04;100.00;100564.97;5038212;28;20073;-81
2023/01/23 04:36:12;;;;;;;70.75;26.40;;;;;;;-0.97;100.00;100556.47;5042319;28;20470;-80
2023/01/23 04:38:37;;;;;;;63.35;27.27;;;;;;;-1.21;100.00;100552.50;5038595;28;20020;-81
2023/01/23 04:41:03;;;;;;;65.80;28.13;;;;;;;-1.26;100.00;100533.72;5030506;28;20507;-81
2023/01/23 04:43:28;;;;;;;63.85;27.95;;;;;;;-1.10;100.00;100555.84;5032613;28;20040;-81
2023/01/23 04:45:55;;;;;;;69.72;27.00;;;;;;;-0.99;100.00;100554.94;5030802;28;20036;-81
2023/01/23 04:48:21;;;;;;;59.25;26.35;;;;;;;-0.72;100.00;100560.38;5029985;28;20040;-81
2023/01/23 04:50:48;;;;;;;60.88;26.27;;;;;;;-0.95;100.00;100553.69;5038262;28;20400;-81
2023/01/23 04:53:14;;;;;;;66.90;26.23;;;;;;;-1.05;100.00;100550.22;5037277;28;20544;-81
2023/01/23 04:55:39;;;;;;;71.85;28.90;;;;;;;-1.25;100.00;100551.94;5044032;28;20032;-81
2023/01/23 04:58:06;;;;;;;59.42;25.42;;;;;;;-1.11;100.00;100554.19;5028557;28;20045;-81
2023/01/23 05:00:31;;;;;;;62.92;26.75;;;;;;;-1.07;100.00;100568.69;5058183;28;20579;-81
2023/01/23 05:02:57;;;;;;;66.55;26.42;;;;;;;-1.18;100.00;100549.63;5045287;28;20056;-81
2023/01/23 05:05:23;;;;;;;64.00;27.77;;;;;;;-0.91;100.00;100549.84;5028733;28;20086;-81
2023/01/23 05:07:50;;;;;;;59.03;25.15;;;;;;;-1.22;100.00;100553.47;5045195;28;20217;-82
2023/01/23 05:10:16;;;;;;;59.42;26.08;;;;;;;-0.51;100.00;100555.03;5061966;28;20186;-82
2023/01/23 05:12:41;;;;;;;61.63;26.17;;;;;;;-0.48;100.00;100554.78;5066223;28;20557;-81
2023/01/23 05:15:08;;;;;;;57.88;25.05;;;;;;;-0.21;99.14;100540.00;5046604;28;20025;-81
2023/01/23 05:17:33;;;;;;;59.08;25.10;;;;;;;-0.54;98.69;100550.88;5080206;28;20032;-81
2023/01/23 05:19:59;;;;;;;58.20;26.20;;;;;;;-0.55;98.57;100544.00;5034598;28;20036;-81
2023/01/23 05:22:24;;;;;;;53.00;22.88;;;;;;;-0.27;98.73;100544.97;5041550;28;20451;-81
2023/01/23 05:24:49;;;;;;;55.90;24.83;;;;;;;-0.26;97.52;100538.75;5059064;28;20527;-82
2023/01/23 05:27:15;;;;;;;65.63;26.10;;;;;;;-0.44;97.53;100556.16;5039059;28;20678;-81
2023/01/23 05:29:40;;;;;;;55.90;22.67;;;;;;;-0.05;98.10;100560.47;5041271;28;20455;-81
2023/01/23 05:32:06;;;;;;;56.90;24.38;;;;;;;0.58;95.60;100545.84;5020842;28;20047;-82
2023/01/23 05:34:31;;;;;;;48.03;24.15;;;;;;;1.03;92.37;100554.63;5036127;28;20481;-81
2023/01/23 05:36:57;;;;;;;53.78;24.52;;;;;;;0.69;91.77;100557.00;5020717;28;20243;-81
2023/01/23 05:39:22;;;;;;;44.33;21.85;;;;;;;1.12;91.23;100560.81;5062000;28;20028;-81
2023/01/23 05:41:47;;;;;;;45.75;21.48;;;;;;;1.19;89.87;100560.09;5057073;28;20463;-81
2023/01/23 05:44:13;;;;;;;43.17;21.38;;;;;;;0.76;90.80;100560.69;5061129;28;20124;-81
2023/01/23 05:46:39;;;;;;;36.78;19.48;;;;;;;0.94;91.18;100558.13;5061494;28;20455;-81
2023/01/23 05:49:04;;;;;;;44.67;21.23;;;;;;;0.91;90.91;100562.88;5079573;28;20028;-81
2023/01/23 05:51:32;;;;;;;35.90;18.85;;;;;;;1.12;90.45;100560.81;5049234;28;20032;-81
2023/01/23 05:54:02;;;;;;;36.05;19.55;;;;;;;0.86;91.05;100555.41;5030200;28;20040;-81
2023/01/23 05:56:27;;;;;;;35.10;17.23;;;;;;;1.09;90.71;100548.78;5055560;28;20040;-81
2023/01/23 05:58:53;;;;;;;36.45;18.13;;;;;;;1.18;90.84;100562.88;5062673;28;20506;-81
2023/01/23 06:01:20;;;;;;;44.20;20.08;;;;;;;0.54;90.73;100568.09;5058756;28;20038;-81
2023/01/23 06:03:46;;;;;;;49.95;23.48;;;;;;;0.72;91.38;100572.47;5064611;28;20078;-80
2023/01/23 06:06:11;;;;;;;46.65;21.40;;;;;;;0.08;92.71;100578.53;5077282;28;20021;-81
2023/01/23 06:08:36;;;;;;;49.13;23.67;;;;;;;0.32;93.02;100586.81;5029501;28;20051;-81
2023/01/23 06:11:02;;;;;;;42.55;20.63;;;;;;;0.15;93.55;100577.03;5039358;28;20032;-81
2023/01/23 06:13:28;;;;;;;38.65;20.30;;;;;;;0.06;94.24;100593.59;5059494;28;20047;-81
2023/01/23 06:15:54;;;;;;;42.35;20.92;;;;;;;0.23;93.52;100585.84;5054490;28;20033;-81
2023/01/23 06:18:20;;;;;;;36.00;18.17;;;;;;;0.34;94.18;100582.25;5069971;28;20467;-81
2023/01/23 06:20:45;;;;;;;44.05;21.25;;;;;;;-0.03;94.80;100582.13;5039965;28;20048;-81
2023/01/23 06:23:11;;;;;;;44.63;21.33;;;;;;;-0.09;95.43;100593.19;5056416;28;20068;-81
2023/01/23 06:25:37;;;;;;;42.88;20.90;;;;;;;0.15;95.03;100595.41;5045250;28;20029;-80
2023/01/23 06:28:03;;;;;;;43.85;22.17;;;;;;;0.09;94.94;100593.34;5067737;28;20125;-80
2023/01/23 06:30:28;;;;;;;45.13;20.58;;;;;;;0.25;94.58;100604.91;5059152;28;20036;-81
2023/01/23 06:32:53;;;;;;;43.20;22.10;;;;;;;0.05;94.26;100612.91;5058583;28;20037;-80
2023/01/23 06:35:19;;;;;;;47.83;24.83;;;;;;;0.06;94.81;100606.72;5061733;28;20395;-80
2023/01/23 06:37:45;;;;;;;42.22;18.77;;;;;;;0.44;94.35;100614.56;5059361;28;20404;-80
2023/01/23 06:40:12;;;;;;;40.60;19.40;;;;;;;0.62;94.10;100623.38;5036155;28;20028;-81
2023/01/23 06:42:38;;;;;;;45.42;22.20;;;;;;;-0.09;94.01;100617.63;5024924;28;20031;-80
2023/01/23 06:45:04;;;;;;;40.03;18.45;;;;;;;-0.40;95.76;100618.69;5031827;28;20506;-80
2023/01/23 06:47:30;;;;;;;43.78;20.10;;;;;;;-0.19;96.09;100623.81;5061307;28;20046;-80
2023/01/23 06:49:56;;;;;;;45.72;22.13;;;;;;;-0.25;96.20;100616.50;5042931;28;20115;-80
2023/01/23 06:52:21;;;;;;;45.78;20.75;;;;;;;-0.27;95.43;100640.25;5025407;28;20218;-80
2023/01/23 06:54:46;;;;;;;50.92;21.15;;;;;;;-0.33;96.22;100632.91;5029400;28;20126;-81
2023/01/23 06:57:12;;;;;;;40.40;20.05;;;;;;;-0.30;96.42;100630.03;5058582;28;20480;-80
2023/01/23 06:59:37;;;;;;;49.00;20.42;;;;;;;-0.50;96.67;100640.63;5070712;28;20024;-80
2023/01/23 07:02:03;;;;;;;50.58;21.05;;;;;;;-0.77;98.11;100643.84;5052621;28;20034;-80
2023/01/23 07:04:28;;;;;;;51.05;20.88;;;;;;;-0.80;98.07;100637.06;5037108;28;20077;-80
2023/01/23 07:06:53;;;;;;;47.50;21.55;;;;;;;-0.47;97.78;100640.34;5027891;28;20064;-80
2023/01/23 07:09:19;;;;;;;48.33;22.45;;;;;;;-0.81;98.13;100648.50;5024830;28;20391;-80
2023/01/23 07:11:45;;;;;;;46.17;21.35;;;;;;;-0.87;98.91;100662.13;5059227;28;20075;-80
2023/01/23 07:14:10;;;;;;;49.40;24.00;;;;;;;-0.94;99.36;100658.38;5042233;28;20116;-81
2023/01/23 07:16:35;;;;;;;43.83;21.25;;;;;;;-0.16;98.33;100660.28;5057011;28;20029;-80
2023/01/23 07:19:02;;;;;;;45.17;20.13;;;;;;;-0.45;97.59;100651.53;5046384;28;20472;-80
2023/01/23 07:21:28;;;;;;;41.97;20.73;;;;;;;-0.47;97.09;100674.44;5073930;28;20024;-81
2023/01/23 07:23:53;;;;;;;47.78;23.90;;;;;;;-0.98;98.12;100662.22;5052347;28;20431;-80
2023/01/23 07:26:19;;;;;;;50.40;24.10;;;;;;;-0.55;98.43;100664.63;5041110;28;20048;-80
2023/01/23 07:28:44;;;;;;;51.35;23.10;;;;;;;-0.60;98.40;100682.53;5054995;28;20059;-80
2023/01/23 07:31:09;;;;;;;48.08;22.67;;;;;;;-0.41;97.63;100679.97;5066931;28;20032;-80
2023/01/23 07:33:35;;;;;;;47.92;23.20;;;;;;;-0.86;98.44;100673.47;5065678;28;20047;-79
2023/01/23 07:36:04;;;;;;;45.28;24.95;;;;;;;-0.70;99.02;100688.72;5059818;28;20028;-79
2023/01/23 07:38:29;;;;;;;56.10;29.73;;;;;;;-0.53;98.61;100690.69;5061694;28;20108;-79
2023/01/23 07:40:57;;;;;;;54.38;24.05;;;;;;;-0.88;98.51;100672.75;5055027;28;20157;-80
2023/01/23 07:43:22;;;;;;;46.05;20.73;;;;;;;-0.71;99.08;100680.00;5077729;28;20025;-80
2023/01/23 07:45:49;;;;;;;49.17;21.33;;;;;;;-0.65;99.46;100673.38;5053788;28;20525;-80
2023/01/23 07:48:14;;;;;;;49.83;21.67;;;;;;;-0.86;98.72;100671.66;5035851;28;20037;-79
2023/01/23 07:50:40;;;;;;;37.92;18.83;;;;;;;-0.01;98.18;100672.91;5047460;28;20400;-79
2023/01/23 07:53:05;;;;;;;51.45;26.63;;;;;;;-0.14;96.83;100680.19;5035835;28;20476;-80
2023/01/23 07:55:30;;;;;;;47.13;22.15;;;;;;;-0.51;97.41;100676.50;5041941;28;20112;-79
2023/01/23 07:57:56;;;;;;;51.45;21.25;;;;;;;-0.63;97.90;100690.66;5047352;28;20032;-79
2023/01/23 08:00:22;;;;;;;45.45;23.20;;;;;;;-0.88;99.03;100691.09;5048446;28;20035;-80
2023/01/23 08:02:47;;;;;;;50.03;22.65;;;;;;;-0.69;99.16;100678.09;5037987;28;20061;-79
2023/01/23 08:05:13;;;;;;;55.13;22.85;;;;;;;-0.85;99.16;100685.59;5073024;28;20484;-80
2023/01/23 08:07:38;;;;;;;48.30;22.42;;;;;;;-0.55;99.73;100687.38;5067518;28;20056;-79
2023/01/23 08:10:04;;;;;;;53.28;21.83;;;;;;;-0.60;98.41;100693.03;5032282;28;20036;-80
2023/01/23 08:12:29;;;;;;;58.33;23.13;;;;;;;-0.52;98.48;100695.81;5044347;28;20070;-80
2023/01/23 08:14:55;;;;;;;49.53;22.63;;;;;;;-0.31;97.89;100696.59;5084503;28;20025;-80
2023/01/23 08:17:20;;;;;;;51.50;22.95;;;;;;;0.10;96.79;100689.47;5043552;28;20028;-80
2023/01/23 08:19:46;;;;;;;48.83;22.02;;;;;;;-0.55;97.48;100693.47;5038347;28;20040;-80
2023/01/23 08:22:11;;;;;;;52.67;21.38;;;;;;;-0.76;98.58;100705.78;5051580;28;20082;-80
2023/01/23 08:24:36;;;;;;;53.45;23.08;;;;;;;-0.98;99.15;100700.69;5070718;28;20060;-80
2023/01/23 08:27:02;;;;;;;50.28;23.45;;;;;;;-0.97;99.94;100703.19;5074358;28;20055;-79
2023/01/23 08:29:27;;;;;;;60.03;23.10;;;;;;;-0.71;100.00;100714.09;5040134;28;20115;-80
2023/01/23 08:31:53;;;;;;;54.75;22.40;;;;;;;-0.84;99.98;100685.47;5083438;28;20028;-81
2023/01/23 08:34:20;;;;;;;55.13;22.30;;;;;;;-1.07;100.00;100714.59;5054736;28;20098;-80
2023/01/23 08:36:46;;;;;;;55.50;24.20;;;;;;;-0.82;99.74;100722.03;5058658;28;20375;-81
2023/01/23 08:39:11;;;;;;;60.75;25.60;;;;;;;-0.69;100.00;100730.50;5039266;28;20029;-81
2023/01/23 08:41:36;;;;;;;50.58;22.98;;;;;;;-0.24;99.37;100737.03;5039583;28;20062;-80
2023/01/23 08:44:03;;;;;;;56.63;24.17;;;;;;;-0.45;98.52;100743.31;5072721;28;20024;-81
2023/01/23 08:46:28;;;;;;;59.90;24.98;;;;;;;-0.57;98.68;100741.75;5036461;28;20048;-81
2023/01/23 08:48:54;;;;;;;52.67;23.63;;;;;;;-0.91;99.09;100744.59;5053666;28;20106;-80
2023/01/23 08:51:20;;;;;;;59.20;24.55;;;;;;;-0.98;100.00;100742.59;5079121;28;20123;-80
2023/01/23 08:53:45;;;;;;;55.63;24.25;;;;;;;-0.83;100.00;100746.59;5089988;28;20028;-81
2023/01/23 08:56:18;;;;;;;52.45;25.63;;;;;;;-0.20;99.43;100756.78;5070238;28;20032;-81
2023/01/23 08:58:44;;;;;;;63.55;25.27;;;;;;;-0.87;98.79;100742.53;5063638;28;20111;-80
2023/01/23 09:01:12;;;;;;;55.22;24.17;;;;;;;-0.85;99.42;100749.31;5090809;28;20032;-80
2023/01/23 09:03:37;;;;;;;64.50;25.70;;;;;;;-0.72;99.65;100743.88;5051094;28;20123;-80
2023/01/23 09:06:03;;;;;;;56.17;24.42;;;;;;;-0.70;99.94;100749.84;5066415;28;20064;-80
2023/01/23 09:08:29;;;;;;;59.75;26.00;;;;;;;-0.65;99.69;100759.91;5072849;28;20062;-80
2023/01/23 09:11:02;;;;;;;61.70;25.88;;;;;;;-0.55;99.38;100756.41;5064229;28;20427;-80
2023/01/23 09:13:27;;;;;;;56.03;25.38;;;;;;;-0.54;99.30;100749.34;5058351;28;20024;-80
2023/01/23 09:15:53;;;;;;;57.28;25.05;;;;;;;-0.42;99.73;100762.25;5057663;28;20035;-80
2023/01/23 09:18:18;;;;;;;68.00;26.42;;;;;;;-0.33;99.06;100750.94;5065058;28;20033;-80
2023/01/23 09:20:43;;;;;;;56.45;24.70;;;;;;;0.09;98.33;100761.31;5040838;28;20040;-80
2023/01/23 09:23:09;;;;;;;62.58;27.85;;;;;;;0.04;98.15;100774.00;5021328;28;20032;-81
2023/01/23 09:25:36;;;;;;;56.10;26.02;;;;;;;0.39;96.96;100764.69;5047040;28;20028;-81
2023/01/23 09:28:02;;;;;;;62.15;27.98;;;;;;;-0.17;96.43;100779.31;5053992;28;20028;-80
2023/01/23 09:30:27;;;;;;;59.45;27.02;;;;;;;-0.38;97.56;100776.75;5053305;28;20396;-80
2023/01/23 09:32:53;;;;;;;55.63;26.30;;;;;;;-0.52;98.79;100774.47;5071687;28;20037;-80
2023/01/23 09:35:18;;;;;;;60.65;27.77;;;;;;;-0.11;99.28;100787.50;5081697;28;20036;-80
2023/01/23 09:37:58;;;;;;;53.92;25.80;;;;;;;-0.18;99.01;100783.75;5051261;28;20037;-80
2023/01/23 09:40:28;;;;;;;65.28;28.33;;;;;;;0.05;97.67;100780.91;5045743;28;20048;-80
2023/01/23 09:42:57;;;;;;;60.85;27.17;;;;;;;-0.05;97.42;100770.41;5085654;28;20117;-80
2023/01/23 09:45:26;;;;;;;64.63;28.20;;;;;;;0.25;97.57;100769.50;5068502;28;20495;-80
2023/01/23 09:48:09;;;;;;;64.63;30.13;;;;;;;0.54;96.06;100779.09;5061967;28;20024;-80
2023/01/23 09:50:50;;;;;;;55.75;26.67;;;;;;;0.03;96.41;100777.59;5041737;28;20537;-80
2023/01/23 09:53:20;;;;;;;53.80;23.80;;;;;;;-0.10;97.01;100776.03;5068012;28;20028;-81
2023/01/23 09:56:16;;;;;;;57.97;25.33;;;;;;;-0.19;97.22;100774.22;5047465;28;20024;-80
2023/01/23 09:58:59;;;;;;;53.58;26.55;;;;;;;0.27;96.64;100780.69;5085139;28;20055;-80
2023/01/23 10:01:28;;;;;;;58.60;29.13;;;;;;;-0.23;97.09;100778.06;5071181;28;20044;-80
2023/01/23 10:03:54;;;;;;;62.67;28.73;;;;;;;0.02;97.34;100783.81;5054908;28;20119;-80
2023/01/23 10:06:25;;;;;;;64.35;25.85;;;;;;;-0.49;97.91;100765.53;5051427;28;20111;-80
2023/01/23 10:09:22;;;;;;;50.55;25.08;;;;;;;-0.52;98.68;100781.50;5076465;28;20033;-80
2023/01/23 10:12:26;;;;;;;65.10;27.48;;;;;;;-0.24;98.88;100789.50;5062909;28;20027;-80
2023/01/23 10:15:16;;;;;;;56.92;25.63;;;;;;;0.41;98.26;100775.91;5034730;28;20033;-80
2023/01/23 10:18:01;;;;;;;54.67;27.00;;;;;;;0.17;97.50;100767.56;5067485;28;20035;-80
2023/01/23 10:20:29;;;;;;;56.78;26.20;;;;;;;-0.20;97.58;100772.53;5072372;28;20477;-80
2023/01/23 10:23:09;;;;;;;61.80;28.25;;;;;;;-0.04;97.59;100772.88;5059244;28;20119;-80
2023/01/23 10:25:39;;;;;;;64.55;26.83;;;;;;;0.36;97.24;100770.22;5043367;28;20021;-80
2023/01/23 10:28:31;;;;;;;47.45;25.10;;;;;;;0.44;95.83;100762.47;5068146;28;20040;-80
2023/01/23 10:31:02;;;;;;;66.05;28.58;;;;;;;0.42;95.93;100750.44;5081357;28;20028;-80
2023/01/23 10:33:40;;;;;;;58.63;27.17;;;;;;;0.85;95.46;100747.41;5074886;28;20050;-81
2023/01/23 10:36:33;;;;;;;52.55;24.35;;;;;;;0.36;95.00;100745.75;5041980;28;20028;-81
2023/01/23 10:39:05;;;;;;;52.65;25.77;;;;;;;0.38;96.26;100756.94;5072062;28;20624;-80
2023/01/23 10:41:32;;;;;;;57.53;25.80;;;;;;;0.51;96.63;100755.72;5057933;28;20135;-80
2023/01/23 10:43:59;;;;;;;69.30;32.55;;;;;;;0.47;95.17;100745.63;5057409;28;20031;-82
2023/01/23 10:46:37;;;;;;;55.60;26.30;;;;;;;0.38;96.15;100756.94;5059857;28;20032;-81
2023/01/23 10:49:03;;;;;;;62.42;25.70;;;;;;;0.36;96.57;100749.19;5053324;28;20032;-80
2023/01/23 10:51:37;;;;;;;55.47;24.52;;;;;;;0.55;96.47;100757.09;5059791;28;20028;-80
2023/01/23 10:54:02;;;;;;;56.45;24.13;;;;;;;0.74;94.90;100758.91;5088161;28;20056;-80
2023/01/23 10:56:30;;;;;;;59.90;26.02;;;;;;;0.69;95.45;100754.06;5079845;28;20032;-80
2023/01/23 10:58:57;;;;;;;48.95;24.85;;;;;;;1.05;94.51;100747.25;5081051;28;20108;-80
2023/01/23 11:01:29;;;;;;;64.32;28.48;;;;;;;1.00;94.46;100744.22;5046010;28;20092;-80
2023/01/23 11:03:55;;;;;;;53.58;24.52;;;;;;;1.38;93.40;100743.28;5050451;28;20025;-80
2023/01/23 11:06:24;;;;;;;55.90;26.50;;;;;;;0.61;93.90;100747.84;5038790;28;20028;-80
2023/01/23 11:08:59;;;;;;;59.03;25.50;;;;;;;0.38;94.54;100765.66;5080390;28;20035;-80
2023/01/23 11:11:28;;;;;;;50.90;23.92;;;;;;;0.34;95.87;100761.66;5052856;28;20036;-80
2023/01/23 11:14:11;;;;;;;59.90;25.52;;;;;;;0.42;95.09;100755.69;5063597;28;20098;-79
2023/01/23 11:16:37;;;;;;;57.65;26.50;;;;;;;0.43;95.82;100755.56;5038843;28;20492;-79